sensor_id;sensor_type;location;lat;lon;timestamp;P1;durP1;ratioP1;P2;durP2;ratioP2
26536;SDS011;14204;51.262;5.488;2022-07-09T00:00:04;7.30;;;4.53;;
26536;SDS011;14204;51.262;5.488;2022-07-09T00:02:31;5.45;;;4.20;;
26536;SDS011;14204;51.262;5.488;2022-07-09T00:04:57;6.00;;;4.10;;
26536;SDS011;14204;51.262;5.488;2022-07-09T00:07:22;4.85;;;3.83;;
26536;SDS011;14204;51.262;5.488;2022-07-09T00:09:48;5.00;;;4.00;;
26536;SDS011;14204;51.262;5.488;2022-07-09T00:12:13;7.30;;;4.28;;
26536;SDS011;14204;51.262;5.488;2022-07-09T00:14:39;4.95;;;3.63;;
26536;SDS011;14204;51.262;5.488;2022-07-09T00:17:05;5.25;;;4.00;;
26536;SDS011;14204;51.262;5.488;2022-07-09T00:19:30;6.60;;;4.03;;
26536;SDS011;14204;51.262;5.488;2022-07-09T00:21:56;4.70;;;3.80;;
26536;SDS011;14204;51.262;5.488;2022-07-09T00:24:22;6.82;;;4.28;;
26536;SDS011;14204;51.262;5.488;2022-07-09T00:26:47;4.70;;;4.25;;
26536;SDS011;14204;51.262;5.488;2022-07-09T00:29:13;5.90;;;4.45;;
26536;SDS011;14204;51.262;5.488;2022-07-09T00:31:39;7.60;;;4.47;;
26536;SDS011;14204;51.262;5.488;2022-07-09T00:34:05;5.97;;;5.00;;
26536;SDS011;14204;51.262;5.488;2022-07-09T00:36:31;7.28;;;6.00;;
26536;SDS011;14204;51.262;5.488;2022-07-09T00:38:56;9.23;;;6.38;;
26536;SDS011;14204;51.262;5.488;2022-07-09T00:41:22;9.43;;;6.28;;
26536;SDS011;14204;51.262;5.488;2022-07-09T00:43:48;8.10;;;7.20;;
26536;SDS011;14204;51.262;5.488;2022-07-09T00:46:15;7.13;;;6.38;;
26536;SDS011;14204;51.262;5.488;2022-07-09T00:48:42;7.03;;;5.97;;
26536;SDS011;14204;51.262;5.488;2022-07-09T00:51:08;10.55;;;6.95;;
26536;SDS011;14204;51.262;5.488;2022-07-09T00:53:34;10.25;;;8.00;;
26536;SDS011;14204;51.262;5.488;2022-07-09T00:56:00;10.63;;;9.40;;
26536;SDS011;14204;51.262;5.488;2022-07-09T00:58:27;9.68;;;7.63;;
26536;SDS011;14204;51.262;5.488;2022-07-09T01:00:53;8.05;;;6.82;;
26536;SDS011;14204;51.262;5.488;2022-07-09T01:03:20;7.45;;;6.70;;
26536;SDS011;14204;51.262;5.488;2022-07-09T01:05:45;7.32;;;5.45;;
26536;SDS011;14204;51.262;5.488;2022-07-09T01:08:11;7.78;;;5.85;;
26536;SDS011;14204;51.262;5.488;2022-07-09T01:10:37;8.27;;;6.65;;
26536;SDS011;14204;51.262;5.488;2022-07-09T01:13:04;8.40;;;7.20;;
26536;SDS011;14204;51.262;5.488;2022-07-09T01:15:30;10.88;;;8.00;;
26536;SDS011;14204;51.262;5.488;2022-07-09T01:17:56;10.82;;;8.38;;
26536;SDS011;14204;51.262;5.488;2022-07-09T01:20:27;10.48;;;9.35;;
26536;SDS011;14204;51.262;5.488;2022-07-09T01:22:57;11.10;;;9.65;;
26536;SDS011;14204;51.262;5.488;2022-07-09T01:25:36;14.20;;;10.27;;
26536;SDS011;14204;51.262;5.488;2022-07-09T01:28:04;11.82;;;10.30;;
26536;SDS011;14204;51.262;5.488;2022-07-09T01:30:31;11.38;;;9.32;;
26536;SDS011;14204;51.262;5.488;2022-07-09T01:32:58;13.85;;;10.63;;
26536;SDS011;14204;51.262;5.488;2022-07-09T01:35:25;16.52;;;11.88;;
26536;SDS011;14204;51.262;5.488;2022-07-09T01:37:51;15.43;;;10.88;;
26536;SDS011;14204;51.262;5.488;2022-07-09T01:40:18;15.40;;;11.20;;
26536;SDS011;14204;51.262;5.488;2022-07-09T01:42:44;16.92;;;12.93;;
26536;SDS011;14204;51.262;5.488;2022-07-09T01:45:10;15.15;;;11.18;;
26536;SDS011;14204;51.262;5.488;2022-07-09T01:47:36;18.33;;;12.30;;
26536;SDS011;14204;51.262;5.488;2022-07-09T01:50:02;13.93;;;12.23;;
26536;SDS011;14204;51.262;5.488;2022-07-09T01:52:28;16.40;;;12.50;;
26536;SDS011;14204;51.262;5.488;2022-07-09T01:54:55;14.75;;;11.45;;
26536;SDS011;14204;51.262;5.488;2022-07-09T01:57:20;17.42;;;12.48;;
26536;SDS011;14204;51.262;5.488;2022-07-09T01:59:46;13.45;;;11.55;;
26536;SDS011;14204;51.262;5.488;2022-07-09T02:02:12;15.18;;;11.75;;
26536;SDS011;14204;51.262;5.488;2022-07-09T02:04:37;15.07;;;12.07;;
26536;SDS011;14204;51.262;5.488;2022-07-09T02:07:03;19.95;;;13.85;;
26536;SDS011;14204;51.262;5.488;2022-07-09T02:09:29;13.90;;;11.40;;
26536;SDS011;14204;51.262;5.488;2022-07-09T02:11:55;17.73;;;13.23;;
26536;SDS011;14204;51.262;5.488;2022-07-09T02:14:21;15.38;;;13.07;;
26536;SDS011;14204;51.262;5.488;2022-07-09T02:16:47;14.23;;;12.73;;
26536;SDS011;14204;51.262;5.488;2022-07-09T02:19:13;15.98;;;13.85;;
26536;SDS011;14204;51.262;5.488;2022-07-09T02:21:39;15.77;;;14.05;;
26536;SDS011;14204;51.262;5.488;2022-07-09T02:24:05;20.00;;;14.68;;
26536;SDS011;14204;51.262;5.488;2022-07-09T02:26:31;19.38;;;14.43;;
26536;SDS011;14204;51.262;5.488;2022-07-09T02:28:57;19.08;;;16.08;;
26536;SDS011;14204;51.262;5.488;2022-07-09T02:31:23;16.40;;;13.20;;
26536;SDS011;14204;51.262;5.488;2022-07-09T02:33:49;14.80;;;13.25;;
26536;SDS011;14204;51.262;5.488;2022-07-09T02:36:15;15.38;;;12.98;;
26536;SDS011;14204;51.262;5.488;2022-07-09T02:38:41;16.80;;;15.00;;
26536;SDS011;14204;51.262;5.488;2022-07-09T02:41:06;18.65;;;13.63;;
26536;SDS011;14204;51.262;5.488;2022-07-09T02:43:32;21.88;;;16.63;;
26536;SDS011;14204;51.262;5.488;2022-07-09T02:45:57;20.10;;;15.95;;
26536;SDS011;14204;51.262;5.488;2022-07-09T02:48:24;20.45;;;16.88;;
26536;SDS011;14204;51.262;5.488;2022-07-09T02:50:53;15.77;;;14.15;;
26536;SDS011;14204;51.262;5.488;2022-07-09T02:53:19;14.43;;;12.65;;
26536;SDS011;14204;51.262;5.488;2022-07-09T02:55:45;15.65;;;10.50;;
26536;SDS011;14204;51.262;5.488;2022-07-09T02:58:11;13.32;;;10.93;;
26536;SDS011;14204;51.262;5.488;2022-07-09T03:00:38;14.93;;;11.95;;
26536;SDS011;14204;51.262;5.488;2022-07-09T03:03:07;17.00;;;14.82;;
26536;SDS011;14204;51.262;5.488;2022-07-09T03:05:34;21.25;;;16.23;;
26536;SDS011;14204;51.262;5.488;2022-07-09T03:08:00;23.10;;;15.48;;
26536;SDS011;14204;51.262;5.488;2022-07-09T03:10:26;20.65;;;15.13;;
26536;SDS011;14204;51.262;5.488;2022-07-09T03:12:52;19.67;;;14.40;;
26536;SDS011;14204;51.262;5.488;2022-07-09T03:15:18;17.00;;;14.15;;
26536;SDS011;14204;51.262;5.488;2022-07-09T03:17:44;16.55;;;12.25;;
26536;SDS011;14204;51.262;5.488;2022-07-09T03:20:11;17.52;;;13.57;;
26536;SDS011;14204;51.262;5.488;2022-07-09T03:22:37;18.33;;;14.00;;
26536;SDS011;14204;51.262;5.488;2022-07-09T03:25:04;16.40;;;14.38;;
26536;SDS011;14204;51.262;5.488;2022-07-09T03:27:30;16.23;;;14.52;;
26536;SDS011;14204;51.262;5.488;2022-07-09T03:29:56;19.48;;;13.75;;
26536;SDS011;14204;51.262;5.488;2022-07-09T03:32:22;17.75;;;14.02;;
26536;SDS011;14204;51.262;5.488;2022-07-09T03:34:48;19.17;;;15.32;;
26536;SDS011;14204;51.262;5.488;2022-07-09T03:37:13;16.85;;;15.05;;
26536;SDS011;14204;51.262;5.488;2022-07-09T03:39:39;20.17;;;16.23;;
26536;SDS011;14204;51.262;5.488;2022-07-09T03:42:05;19.13;;;15.25;;
26536;SDS011;14204;51.262;5.488;2022-07-09T03:44:34;19.25;;;15.38;;
26536;SDS011;14204;51.262;5.488;2022-07-09T03:46:59;16.77;;;14.98;;
26536;SDS011;14204;51.262;5.488;2022-07-09T03:49:26;19.33;;;15.68;;
26536;SDS011;14204;51.262;5.488;2022-07-09T03:51:52;22.25;;;17.00;;
26536;SDS011;14204;51.262;5.488;2022-07-09T03:54:17;17.27;;;15.30;;
26536;SDS011;14204;51.262;5.488;2022-07-09T03:56:43;18.63;;;15.43;;
26536;SDS011;14204;51.262;5.488;2022-07-09T03:59:09;18.23;;;15.63;;
26536;SDS011;14204;51.262;5.488;2022-07-09T04:01:35;23.92;;;17.35;;
26536;SDS011;14204;51.262;5.488;2022-07-09T04:04:01;21.75;;;18.48;;
26536;SDS011;14204;51.262;5.488;2022-07-09T04:06:26;23.42;;;19.85;;
26536;SDS011;14204;51.262;5.488;2022-07-09T04:08:52;26.77;;;18.95;;
26536;SDS011;14204;51.262;5.488;2022-07-09T04:11:18;26.08;;;20.38;;
26536;SDS011;14204;51.262;5.488;2022-07-09T04:13:44;25.80;;;20.42;;
26536;SDS011;14204;51.262;5.488;2022-07-09T04:16:10;29.17;;;20.65;;
26536;SDS011;14204;51.262;5.488;2022-07-09T04:18:35;25.92;;;21.38;;
26536;SDS011;14204;51.262;5.488;2022-07-09T04:21:01;24.92;;;21.85;;
26536;SDS011;14204;51.262;5.488;2022-07-09T04:23:27;25.98;;;21.08;;
26536;SDS011;14204;51.262;5.488;2022-07-09T04:25:53;29.48;;;22.27;;
26536;SDS011;14204;51.262;5.488;2022-07-09T04:28:19;33.58;;;24.58;;
26536;SDS011;14204;51.262;5.488;2022-07-09T04:30:48;34.90;;;24.25;;
26536;SDS011;14204;51.262;5.488;2022-07-09T04:33:14;24.65;;;20.15;;
26536;SDS011;14204;51.262;5.488;2022-07-09T04:35:39;22.23;;;15.77;;
26536;SDS011;14204;51.262;5.488;2022-07-09T04:38:05;24.48;;;18.65;;
26536;SDS011;14204;51.262;5.488;2022-07-09T04:40:31;31.13;;;21.52;;
26536;SDS011;14204;51.262;5.488;2022-07-09T04:42:56;25.17;;;20.00;;
26536;SDS011;14204;51.262;5.488;2022-07-09T04:45:22;23.92;;;17.95;;
26536;SDS011;14204;51.262;5.488;2022-07-09T04:47:48;23.60;;;20.73;;
26536;SDS011;14204;51.262;5.488;2022-07-09T04:50:14;26.75;;;20.50;;
26536;SDS011;14204;51.262;5.488;2022-07-09T04:52:40;29.70;;;21.90;;
26536;SDS011;14204;51.262;5.488;2022-07-09T04:55:06;21.48;;;16.80;;
26536;SDS011;14204;51.262;5.488;2022-07-09T04:57:32;21.40;;;15.80;;
26536;SDS011;14204;51.262;5.488;2022-07-09T04:59:59;19.27;;;16.75;;
26536;SDS011;14204;51.262;5.488;2022-07-09T05:02:25;21.13;;;16.17;;
26536;SDS011;14204;51.262;5.488;2022-07-09T05:04:51;18.30;;;15.70;;
26536;SDS011;14204;51.262;5.488;2022-07-09T05:07:17;24.05;;;20.10;;
26536;SDS011;14204;51.262;5.488;2022-07-09T05:09:43;33.53;;;26.75;;
26536;SDS011;14204;51.262;5.488;2022-07-09T05:12:08;37.15;;;26.27;;
26536;SDS011;14204;51.262;5.488;2022-07-09T05:14:36;35.10;;;25.70;;
26536;SDS011;14204;51.262;5.488;2022-07-09T05:17:02;41.50;;;30.42;;
26536;SDS011;14204;51.262;5.488;2022-07-09T05:19:29;44.97;;;31.60;;
26536;SDS011;14204;51.262;5.488;2022-07-09T05:21:55;44.70;;;33.22;;
26536;SDS011;14204;51.262;5.488;2022-07-09T05:24:20;50.63;;;34.88;;
26536;SDS011;14204;51.262;5.488;2022-07-09T05:26:46;29.77;;;20.30;;
26536;SDS011;14204;51.262;5.488;2022-07-09T05:29:12;33.63;;;21.55;;
26536;SDS011;14204;51.262;5.488;2022-07-09T05:31:38;40.42;;;28.35;;
26536;SDS011;14204;51.262;5.488;2022-07-09T05:34:04;49.63;;;32.78;;
26536;SDS011;14204;51.262;5.488;2022-07-09T05:36:30;30.35;;;24.33;;
26536;SDS011;14204;51.262;5.488;2022-07-09T05:38:57;41.92;;;31.67;;
26536;SDS011;14204;51.262;5.488;2022-07-09T05:41:24;46.67;;;32.85;;
26536;SDS011;14204;51.262;5.488;2022-07-09T05:43:50;41.80;;;32.40;;
26536;SDS011;14204;51.262;5.488;2022-07-09T05:46:17;41.15;;;30.48;;
26536;SDS011;14204;51.262;5.488;2022-07-09T05:48:43;47.47;;;32.10;;
26536;SDS011;14204;51.262;5.488;2022-07-09T05:51:08;45.83;;;29.40;;
26536;SDS011;14204;51.262;5.488;2022-07-09T05:53:34;41.97;;;30.70;;
26536;SDS011;14204;51.262;5.488;2022-07-09T05:56:00;42.60;;;30.42;;
26536;SDS011;14204;51.262;5.488;2022-07-09T05:58:25;39.83;;;30.75;;
26536;SDS011;14204;51.262;5.488;2022-07-09T06:00:51;37.33;;;28.25;;
26536;SDS011;14204;51.262;5.488;2022-07-09T06:03:17;42.42;;;30.48;;
26536;SDS011;14204;51.262;5.488;2022-07-09T06:05:43;39.10;;;30.05;;
26536;SDS011;14204;51.262;5.488;2022-07-09T06:08:09;38.17;;;28.38;;
26536;SDS011;14204;51.262;5.488;2022-07-09T06:10:34;34.88;;;27.85;;
26536;SDS011;14204;51.262;5.488;2022-07-09T06:13:00;35.10;;;27.85;;
26536;SDS011;14204;51.262;5.488;2022-07-09T06:15:26;40.55;;;29.95;;
26536;SDS011;14204;51.262;5.488;2022-07-09T06:17:52;32.90;;;24.65;;
26536;SDS011;14204;51.262;5.488;2022-07-09T06:20:18;32.05;;;23.00;;
26536;SDS011;14204;51.262;5.488;2022-07-09T06:22:44;27.30;;;23.27;;
26536;SDS011;14204;51.262;5.488;2022-07-09T06:25:09;29.92;;;23.42;;
26536;SDS011;14204;51.262;5.488;2022-07-09T06:27:35;27.42;;;22.60;;
26536;SDS011;14204;51.262;5.488;2022-07-09T06:30:01;26.45;;;20.95;;
26536;SDS011;14204;51.262;5.488;2022-07-09T06:32:27;21.23;;;19.02;;
26536;SDS011;14204;51.262;5.488;2022-07-09T06:34:53;21.95;;;17.65;;
26536;SDS011;14204;51.262;5.488;2022-07-09T06:37:19;25.08;;;18.23;;
26536;SDS011;14204;51.262;5.488;2022-07-09T06:39:44;23.17;;;19.48;;
26536;SDS011;14204;51.262;5.488;2022-07-09T06:42:10;27.42;;;18.13;;
26536;SDS011;14204;51.262;5.488;2022-07-09T06:44:38;20.08;;;16.98;;
26536;SDS011;14204;51.262;5.488;2022-07-09T06:47:04;24.42;;;17.75;;
26536;SDS011;14204;51.262;5.488;2022-07-09T06:49:30;30.95;;;21.20;;
26536;SDS011;14204;51.262;5.488;2022-07-09T06:51:56;31.00;;;21.38;;
26536;SDS011;14204;51.262;5.488;2022-07-09T06:54:22;29.83;;;21.58;;
26536;SDS011;14204;51.262;5.488;2022-07-09T06:56:48;25.08;;;20.58;;
26536;SDS011;14204;51.262;5.488;2022-07-09T06:59:14;28.00;;;19.45;;
26536;SDS011;14204;51.262;5.488;2022-07-09T07:01:39;22.95;;;19.23;;
26536;SDS011;14204;51.262;5.488;2022-07-09T07:04:05;24.33;;;17.58;;
26536;SDS011;14204;51.262;5.488;2022-07-09T07:06:31;23.42;;;16.92;;
26536;SDS011;14204;51.262;5.488;2022-07-09T07:08:57;18.75;;;15.95;;
26536;SDS011;14204;51.262;5.488;2022-07-09T07:11:24;18.75;;;14.70;;
26536;SDS011;14204;51.262;5.488;2022-07-09T07:13:50;18.48;;;13.52;;
26536;SDS011;14204;51.262;5.488;2022-07-09T07:16:15;18.02;;;13.98;;
26536;SDS011;14204;51.262;5.488;2022-07-09T07:18:42;14.38;;;12.23;;
26536;SDS011;14204;51.262;5.488;2022-07-09T07:21:08;18.20;;;13.90;;
26536;SDS011;14204;51.262;5.488;2022-07-09T07:23:33;16.52;;;11.70;;
26536;SDS011;14204;51.262;5.488;2022-07-09T07:25:59;17.67;;;12.88;;
26536;SDS011;14204;51.262;5.488;2022-07-09T07:28:25;15.73;;;13.05;;
26536;SDS011;14204;51.262;5.488;2022-07-09T07:30:51;18.48;;;12.60;;
26536;SDS011;14204;51.262;5.488;2022-07-09T07:33:17;20.58;;;14.30;;
26536;SDS011;14204;51.262;5.488;2022-07-09T07:35:45;22.00;;;16.27;;
26536;SDS011;14204;51.262;5.488;2022-07-09T07:38:11;20.27;;;16.48;;
26536;SDS011;14204;51.262;5.488;2022-07-09T07:40:37;24.25;;;18.52;;
26536;SDS011;14204;51.262;5.488;2022-07-09T07:43:03;24.88;;;17.95;;
26536;SDS011;14204;51.262;5.488;2022-07-09T07:45:29;19.85;;;15.75;;
26536;SDS011;14204;51.262;5.488;2022-07-09T07:47:55;18.30;;;11.70;;
26536;SDS011;14204;51.262;5.488;2022-07-09T07:50:21;14.10;;;11.32;;
26536;SDS011;14204;51.262;5.488;2022-07-09T07:52:47;13.50;;;10.52;;
26536;SDS011;14204;51.262;5.488;2022-07-09T07:55:13;14.27;;;11.32;;
26536;SDS011;14204;51.262;5.488;2022-07-09T07:57:38;17.70;;;11.65;;
26536;SDS011;14204;51.262;5.488;2022-07-09T08:00:04;15.00;;;13.25;;
26536;SDS011;14204;51.262;5.488;2022-07-09T08:02:30;16.98;;;12.85;;
26536;SDS011;14204;51.262;5.488;2022-07-09T08:04:56;14.20;;;11.50;;
26536;SDS011;14204;51.262;5.488;2022-07-09T08:07:22;14.50;;;12.52;;
26536;SDS011;14204;51.262;5.488;2022-07-09T08:09:48;18.10;;;13.60;;
26536;SDS011;14204;51.262;5.488;2022-07-09T08:12:13;20.35;;;14.43;;
26536;SDS011;14204;51.262;5.488;2022-07-09T08:14:39;16.75;;;12.73;;
26536;SDS011;14204;51.262;5.488;2022-07-09T08:17:05;15.00;;;12.35;;
26536;SDS011;14204;51.262;5.488;2022-07-09T08:19:30;17.45;;;11.73;;
26536;SDS011;14204;51.262;5.488;2022-07-09T08:21:56;13.50;;;11.95;;
26536;SDS011;14204;51.262;5.488;2022-07-09T08:24:22;14.77;;;11.27;;
26536;SDS011;14204;51.262;5.488;2022-07-09T08:26:47;9.80;;;8.10;;
26536;SDS011;14204;51.262;5.488;2022-07-09T08:29:13;12.23;;;9.05;;
26536;SDS011;14204;51.262;5.488;2022-07-09T08:31:39;9.52;;;7.65;;
26536;SDS011;14204;51.262;5.488;2022-07-09T08:34:05;9.98;;;8.13;;
26536;SDS011;14204;51.262;5.488;2022-07-09T08:36:30;11.15;;;7.43;;
26536;SDS011;14204;51.262;5.488;2022-07-09T08:38:56;11.65;;;8.32;;
26536;SDS011;14204;51.262;5.488;2022-07-09T08:41:22;11.48;;;8.05;;
26536;SDS011;14204;51.262;5.488;2022-07-09T08:43:51;10.45;;;7.75;;
26536;SDS011;14204;51.262;5.488;2022-07-09T08:46:18;11.75;;;8.20;;
26536;SDS011;14204;51.262;5.488;2022-07-09T08:48:44;11.43;;;9.85;;
26536;SDS011;14204;51.262;5.488;2022-07-09T08:51:10;13.70;;;10.73;;
26536;SDS011;14204;51.262;5.488;2022-07-09T08:53:42;12.95;;;10.07;;
26536;SDS011;14204;51.262;5.488;2022-07-09T08:56:09;11.20;;;8.30;;
26536;SDS011;14204;51.262;5.488;2022-07-09T08:58:37;13.52;;;10.52;;
26536;SDS011;14204;51.262;5.488;2022-07-09T09:01:03;13.05;;;9.63;;
26536;SDS011;14204;51.262;5.488;2022-07-09T09:03:31;12.60;;;10.43;;
26536;SDS011;14204;51.262;5.488;2022-07-09T09:08:27;11.40;;;9.45;;
26536;SDS011;14204;51.262;5.488;2022-07-09T09:10:52;14.40;;;9.10;;
26536;SDS011;14204;51.262;5.488;2022-07-09T09:13:18;14.15;;;9.43;;
26536;SDS011;14204;51.262;5.488;2022-07-09T09:15:44;11.25;;;8.65;;
26536;SDS011;14204;51.262;5.488;2022-07-09T09:18:10;14.55;;;10.20;;
26536;SDS011;14204;51.262;5.488;2022-07-09T09:20:36;11.20;;;9.82;;
26536;SDS011;14204;51.262;5.488;2022-07-09T09:23:03;13.85;;;10.18;;
26536;SDS011;14204;51.262;5.488;2022-07-09T09:25:34;12.25;;;10.85;;
26536;SDS011;14204;51.262;5.488;2022-07-09T09:28:00;12.70;;;9.55;;
26536;SDS011;14204;51.262;5.488;2022-07-09T09:30:27;11.82;;;8.30;;
26536;SDS011;14204;51.262;5.488;2022-07-09T09:32:57;16.75;;;10.80;;
26536;SDS011;14204;51.262;5.488;2022-07-09T09:35:25;11.30;;;9.50;;
26536;SDS011;14204;51.262;5.488;2022-07-09T09:38:01;15.80;;;11.05;;
26536;SDS011;14204;51.262;5.488;2022-07-09T09:40:27;13.13;;;10.10;;
26536;SDS011;14204;51.262;5.488;2022-07-09T09:42:53;15.60;;;10.80;;
26536;SDS011;14204;51.262;5.488;2022-07-09T09:45:20;14.98;;;12.40;;
26536;SDS011;14204;51.262;5.488;2022-07-09T09:47:46;15.57;;;11.60;;
26536;SDS011;14204;51.262;5.488;2022-07-09T09:50:18;15.32;;;11.98;;
26536;SDS011;14204;51.262;5.488;2022-07-09T09:52:45;17.27;;;12.23;;
26536;SDS011;14204;51.262;5.488;2022-07-09T09:55:13;15.60;;;11.75;;
26536;SDS011;14204;51.262;5.488;2022-07-09T09:57:40;13.48;;;12.05;;
26536;SDS011;14204;51.262;5.488;2022-07-09T10:00:06;17.92;;;12.77;;
26536;SDS011;14204;51.262;5.488;2022-07-09T10:02:33;15.48;;;13.05;;
26536;SDS011;14204;51.262;5.488;2022-07-09T10:05:03;12.25;;;10.07;;
26536;SDS011;14204;51.262;5.488;2022-07-09T10:07:29;17.90;;;14.05;;
26536;SDS011;14204;51.262;5.488;2022-07-09T10:09:57;21.90;;;16.00;;
26536;SDS011;14204;51.262;5.488;2022-07-09T10:14:57;16.83;;;15.07;;
26536;SDS011;14204;51.262;5.488;2022-07-09T10:17:23;18.38;;;15.27;;
26536;SDS011;14204;51.262;5.488;2022-07-09T10:19:50;20.17;;;18.02;;
26536;SDS011;14204;51.262;5.488;2022-07-09T10:22:17;19.85;;;16.73;;
26536;SDS011;14204;51.262;5.488;2022-07-09T10:24:43;23.73;;;18.08;;
26536;SDS011;14204;51.262;5.488;2022-07-09T10:27:11;21.38;;;18.60;;
26536;SDS011;14204;51.262;5.488;2022-07-09T10:29:53;18.33;;;16.52;;
26536;SDS011;14204;51.262;5.488;2022-07-09T10:35:02;20.38;;;18.15;;
26536;SDS011;14204;51.262;5.488;2022-07-09T10:40:04;24.05;;;19.75;;
26536;SDS011;14204;51.262;5.488;2022-07-09T10:42:39;22.00;;;18.20;;
26536;SDS011;14204;51.262;5.488;2022-07-09T10:48:03;20.25;;;17.13;;
26536;SDS011;14204;51.262;5.488;2022-07-09T10:50:30;18.48;;;15.45;;
26536;SDS011;14204;51.262;5.488;2022-07-09T10:52:57;20.48;;;18.27;;
26536;SDS011;14204;51.262;5.488;2022-07-09T10:55:27;22.75;;;19.48;;
26536;SDS011;14204;51.262;5.488;2022-07-09T10:57:54;21.55;;;19.42;;
26536;SDS011;14204;51.262;5.488;2022-07-09T11:00:20;22.55;;;20.15;;
26536;SDS011;14204;51.262;5.488;2022-07-09T11:02:57;23.08;;;17.88;;
26536;SDS011;14204;51.262;5.488;2022-07-09T11:05:24;21.00;;;17.70;;
26536;SDS011;14204;51.262;5.488;2022-07-09T11:08:00;19.25;;;17.25;;
26536;SDS011;14204;51.262;5.488;2022-07-09T11:10:28;18.60;;;15.75;;
26536;SDS011;14204;51.262;5.488;2022-07-09T11:12:55;21.92;;;16.65;;
26536;SDS011;14204;51.262;5.488;2022-07-09T11:15:24;23.50;;;18.98;;
26536;SDS011;14204;51.262;5.488;2022-07-09T11:18:02;21.08;;;18.77;;
26536;SDS011;14204;51.262;5.488;2022-07-09T11:20:30;21.52;;;19.00;;
26536;SDS011;14204;51.262;5.488;2022-07-09T11:22:57;20.35;;;18.13;;
26536;SDS011;14204;51.262;5.488;2022-07-09T11:25:26;20.00;;;16.63;;
26536;SDS011;14204;51.262;5.488;2022-07-09T11:27:56;17.13;;;15.23;;
26536;SDS011;14204;51.262;5.488;2022-07-09T11:30:22;15.82;;;14.27;;
26536;SDS011;14204;51.262;5.488;2022-07-09T11:32:49;14.57;;;13.15;;
26536;SDS011;14204;51.262;5.488;2022-07-09T11:35:31;14.90;;;12.25;;
26536;SDS011;14204;51.262;5.488;2022-07-09T11:37:59;13.68;;;10.90;;
26536;SDS011;14204;51.262;5.488;2022-07-09T11:40:26;12.98;;;11.68;;
26536;SDS011;14204;51.262;5.488;2022-07-09T11:42:53;13.43;;;12.20;;
26536;SDS011;14204;51.262;5.488;2022-07-09T11:47:48;11.30;;;9.75;;
26536;SDS011;14204;51.262;5.488;2022-07-09T11:50:15;11.95;;;10.38;;
26536;SDS011;14204;51.262;5.488;2022-07-09T11:52:48;11.27;;;8.57;;
26536;SDS011;14204;51.262;5.488;2022-07-09T11:55:19;9.68;;;6.97;;
26536;SDS011;14204;51.262;5.488;2022-07-09T11:57:52;9.60;;;6.53;;
26536;SDS011;14204;51.262;5.488;2022-07-09T12:00:29;10.93;;;5.55;;
26536;SDS011;14204;51.262;5.488;2022-07-09T12:02:56;14.20;;;6.15;;
26536;SDS011;14204;51.262;5.488;2022-07-09T12:05:28;5.15;;;4.57;;
26536;SDS011;14204;51.262;5.488;2022-07-09T12:08:02;5.88;;;4.45;;
26536;SDS011;14204;51.262;5.488;2022-07-09T12:10:33;4.85;;;3.53;;
26536;SDS011;14204;51.262;5.488;2022-07-09T12:13:01;3.65;;;3.13;;
26536;SDS011;14204;51.262;5.488;2022-07-09T12:15:27;5.18;;;3.20;;
26536;SDS011;14204;51.262;5.488;2022-07-09T12:17:54;3.83;;;3.42;;
26536;SDS011;14204;51.262;5.488;2022-07-09T12:20:22;6.20;;;3.45;;
26536;SDS011;14204;51.262;5.488;2022-07-09T12:22:57;3.80;;;2.90;;
26536;SDS011;14204;51.262;5.488;2022-07-09T12:25:23;5.05;;;2.50;;
26536;SDS011;14204;51.262;5.488;2022-07-09T12:27:49;3.95;;;2.55;;
26536;SDS011;14204;51.262;5.488;2022-07-09T12:30:15;3.63;;;2.17;;
26536;SDS011;14204;51.262;5.488;2022-07-09T12:32:41;3.35;;;1.75;;
26536;SDS011;14204;51.262;5.488;2022-07-09T12:35:08;1.88;;;1.77;;
26536;SDS011;14204;51.262;5.488;2022-07-09T12:37:34;3.20;;;2.00;;
26536;SDS011;14204;51.262;5.488;2022-07-09T12:40:01;2.58;;;1.20;;
26536;SDS011;14204;51.262;5.488;2022-07-09T12:42:28;1.35;;;1.25;;
26536;SDS011;14204;51.262;5.488;2022-07-09T12:44:53;1.85;;;1.25;;
26536;SDS011;14204;51.262;5.488;2022-07-09T12:47:19;2.05;;;1.23;;
26536;SDS011;14204;51.262;5.488;2022-07-09T12:49:45;2.47;;;1.48;;
26536;SDS011;14204;51.262;5.488;2022-07-09T12:52:11;2.13;;;1.40;;
26536;SDS011;14204;51.262;5.488;2022-07-09T12:54:37;4.68;;;1.60;;
26536;SDS011;14204;51.262;5.488;2022-07-09T12:57:02;2.53;;;1.27;;
26536;SDS011;14204;51.262;5.488;2022-07-09T12:59:29;2.42;;;1.33;;
26536;SDS011;14204;51.262;5.488;2022-07-09T13:01:55;2.83;;;1.70;;
26536;SDS011;14204;51.262;5.488;2022-07-09T13:04:20;2.60;;;1.50;;
26536;SDS011;14204;51.262;5.488;2022-07-09T13:06:46;3.72;;;1.45;;
26536;SDS011;14204;51.262;5.488;2022-07-09T13:09:12;3.63;;;1.80;;
26536;SDS011;14204;51.262;5.488;2022-07-09T13:11:38;2.28;;;2.08;;
26536;SDS011;14204;51.262;5.488;2022-07-09T13:14:04;4.35;;;1.50;;
26536;SDS011;14204;51.262;5.488;2022-07-09T13:16:30;2.17;;;1.38;;
26536;SDS011;14204;51.262;5.488;2022-07-09T13:18:56;3.08;;;1.40;;
26536;SDS011;14204;51.262;5.488;2022-07-09T13:21:22;2.63;;;1.58;;
26536;SDS011;14204;51.262;5.488;2022-07-09T13:23:48;1.73;;;1.35;;
26536;SDS011;14204;51.262;5.488;2022-07-09T13:26:14;1.73;;;1.63;;
26536;SDS011;14204;51.262;5.488;2022-07-09T13:28:41;3.88;;;1.05;;
26536;SDS011;14204;51.262;5.488;2022-07-09T13:31:07;6.40;;;1.33;;
26536;SDS011;14204;51.262;5.488;2022-07-09T13:33:34;2.60;;;1.40;;
26536;SDS011;14204;51.262;5.488;2022-07-09T13:36:01;1.90;;;1.05;;
26536;SDS011;14204;51.262;5.488;2022-07-09T13:38:28;1.42;;;1.27;;
26536;SDS011;14204;51.262;5.488;2022-07-09T13:40:55;2.63;;;1.20;;
26536;SDS011;14204;51.262;5.488;2022-07-09T13:43:21;2.13;;;1.40;;
26536;SDS011;14204;51.262;5.488;2022-07-09T13:45:49;3.60;;;1.45;;
26536;SDS011;14204;51.262;5.488;2022-07-09T13:48:15;2.75;;;1.38;;
26536;SDS011;14204;51.262;5.488;2022-07-09T13:50:41;1.40;;;1.30;;
26536;SDS011;14204;51.262;5.488;2022-07-09T13:53:07;1.55;;;1.20;;
26536;SDS011;14204;51.262;5.488;2022-07-09T13:55:32;2.00;;;1.50;;
26536;SDS011;14204;51.262;5.488;2022-07-09T13:57:58;1.35;;;1.10;;
26536;SDS011;14204;51.262;5.488;2022-07-09T14:00:24;1.38;;;1.20;;
26536;SDS011;14204;51.262;5.488;2022-07-09T14:02:50;1.08;;;1.00;;
26536;SDS011;14204;51.262;5.488;2022-07-09T14:05:15;3.13;;;1.33;;
26536;SDS011;14204;51.262;5.488;2022-07-09T14:07:41;1.73;;;1.50;;
26536;SDS011;14204;51.262;5.488;2022-07-09T14:10:07;4.35;;;1.13;;
26536;SDS011;14204;51.262;5.488;2022-07-09T14:12:33;1.42;;;1.05;;
26536;SDS011;14204;51.262;5.488;2022-07-09T14:14:58;2.97;;;1.40;;
26536;SDS011;14204;51.262;5.488;2022-07-09T14:17:24;1.52;;;0.93;;
26536;SDS011;14204;51.262;5.488;2022-07-09T14:19:51;3.42;;;1.05;;
26536;SDS011;14204;51.262;5.488;2022-07-09T14:22:16;1.05;;;0.82;;
26536;SDS011;14204;51.262;5.488;2022-07-09T14:24:44;3.35;;;1.10;;
26536;SDS011;14204;51.262;5.488;2022-07-09T14:27:09;2.35;;;1.08;;
26536;SDS011;14204;51.262;5.488;2022-07-09T14:29:35;4.43;;;0.93;;
26536;SDS011;14204;51.262;5.488;2022-07-09T14:32:01;1.92;;;1.02;;
26536;SDS011;14204;51.262;5.488;2022-07-09T14:34:27;4.93;;;1.55;;
26536;SDS011;14204;51.262;5.488;2022-07-09T14:36:52;2.28;;;1.02;;
26536;SDS011;14204;51.262;5.488;2022-07-09T14:39:19;2.03;;;0.80;;
26536;SDS011;14204;51.262;5.488;2022-07-09T14:41:46;1.92;;;0.80;;